createdAt,value
2018-09-17T00:01:55.928Z,101690.34
2018-09-17T00:04:25.204Z,101688.11
2018-09-17T00:06:54.489Z,101692.11
2018-09-17T00:09:23.771Z,101702.00
2018-09-17T00:11:53.082Z,101706.77
2018-09-17T00:14:22.772Z,101694.95
2018-09-17T00:16:52.068Z,101696.86
2018-09-17T00:19:21.404Z,101698.61
2018-09-17T00:21:50.736Z,101699.14
2018-09-17T00:24:20.015Z,101699.97
2018-09-17T00:26:49.335Z,101703.19
2018-09-17T00:29:18.637Z,101698.21
2018-09-17T00:31:48.073Z,101693.09
2018-09-17T00:34:17.375Z,101698.13
2018-09-17T00:36:47.088Z,101698.65
2018-09-17T00:39:16.367Z,101693.58
2018-09-17T00:41:45.629Z,101701.77
2018-09-17T00:44:14.899Z,101699.38
2018-09-17T00:46:44.170Z,101696.98
2018-09-17T00:49:13.499Z,101694.92
2018-09-17T00:51:42.840Z,101694.59
2018-09-17T00:54:12.161Z,101688.12
2018-09-17T00:56:41.702Z,101693.20
2018-09-17T00:59:11.409Z,101694.91
2018-09-17T01:01:40.676Z,101701.36
2018-09-17T01:04:09.972Z,101700.87
2018-09-17T01:06:39.287Z,101697.80
2018-09-17T01:09:12.839Z,101689.41
2018-09-17T01:11:42.132Z,101696.73
2018-09-17T01:14:11.481Z,101695.53
2018-09-17T01:16:40.741Z,101685.63
2018-09-17T01:19:10.442Z,101689.36
2018-09-17T01:21:39.774Z,101684.95
2018-09-17T01:24:09.327Z,101672.02
2018-09-17T01:26:38.685Z,101665.02
2018-09-17T01:29:08.011Z,101669.62
2018-09-17T01:31:37.304Z,101662.48
2018-09-17T01:34:07.106Z,101660.94
2018-09-17T01:36:36.426Z,101655.31
2018-09-17T01:39:09.738Z,101655.64
2018-09-17T01:41:39.030Z,101655.98
2018-09-17T01:44:08.984Z,101657.86
2018-09-17T01:46:38.515Z,101656.66
2018-09-17T01:49:07.787Z,101650.83
2018-09-17T01:51:37.067Z,101652.37
2018-09-17T01:54:06.640Z,101648.72
2018-09-17T01:56:35.955Z,101642.58
2018-09-17T01:59:05.348Z,101641.64
2018-09-17T02:01:35.004Z,101639.39
2018-09-17T02:04:04.303Z,101646.98
2018-09-17T02:06:33.644Z,101641.59
2018-09-17T02:09:03.082Z,101647.23
2018-09-17T02:11:32.369Z,101642.16
2018-09-17T02:14:01.786Z,101643.58
2018-09-17T02:16:31.172Z,101646.33
2018-09-17T02:19:00.580Z,101655.55
2018-09-17T02:21:29.879Z,101672.02
2018-09-17T02:23:59.729Z,101658.66
2018-09-17T02:26:29.106Z,101654.08
2018-09-17T02:28:58.391Z,101663.39
2018-09-17T02:31:27.723Z,101663.25
2018-09-17T02:33:56.996Z,101665.43
2018-09-17T02:36:26.232Z,101674.67
2018-09-17T02:38:55.620Z,101669.91
2018-09-17T02:41:24.903Z,101669.50
2018-09-17T02:43:54.182Z,101659.31
2018-09-17T02:46:23.847Z,101663.02
2018-09-17T02:48:53.117Z,101657.30
2018-09-17T02:51:22.389Z,101664.61
2018-09-17T02:53:51.699Z,101657.42
2018-09-17T02:56:21.051Z,101661.76
2018-09-17T02:58:50.315Z,101661.13
2018-09-17T03:01:19.586Z,101655.02
2018-09-17T03:03:49.309Z,101661.73
2018-09-17T03:06:18.625Z,101650.80
2018-09-17T03:08:48.579Z,101653.52
2018-09-17T03:11:17.952Z,101661.29
2018-09-17T03:13:47.283Z,101658.70
2018-09-17T03:16:16.656Z,101659.21
2018-09-17T03:18:54.573Z,101660.77
2018-09-17T03:21:23.960Z,101663.49
2018-09-17T03:23:53.606Z,101661.34
2018-09-17T03:26:23.316Z,101667.06
2018-09-17T03:28:52.670Z,101664.86
2018-09-17T03:31:21.951Z,101665.63
2018-09-17T03:33:51.219Z,101671.69
2018-09-17T03:36:20.614Z,101669.09
2018-09-17T03:38:50.267Z,101667.03
2018-09-17T03:41:20.629Z,101665.56
2018-09-17T03:43:51.213Z,101666.02
2018-09-17T03:46:20.565Z,101664.69
2018-09-17T03:48:49.992Z,101668.23
2018-09-17T03:51:19.422Z,101663.92
2018-09-17T03:53:48.861Z,101663.96
2018-09-17T03:56:18.247Z,101663.73
2018-09-17T03:58:48.088Z,101662.17
2018-09-17T04:01:17.373Z,101667.30
2018-09-17T04:03:47.030Z,101673.02
2018-09-17T04:06:16.401Z,101674.55
2018-09-17T04:08:45.937Z,101678.32
2018-09-17T04:11:15.305Z,101684.70
2018-09-17T04:13:45.182Z,101678.00
2018-09-17T04:16:14.476Z,101676.86
2018-09-17T04:18:43.850Z,101681.20
2018-09-17T04:21:13.155Z,101674.76
2018-09-17T04:23:42.555Z,101676.50
2018-09-17T04:26:12.689Z,101684.27
2018-09-17T04:28:42.039Z,101677.06
2018-09-17T04:31:11.356Z,101678.42
2018-09-17T04:33:43.242Z,101686.09
2018-09-17T04:36:13.402Z,101687.61
2018-09-17T04:38:42.709Z,101686.64
2018-09-17T04:41:12.048Z,101688.16
2018-09-17T04:43:41.482Z,101688.51
2018-09-17T04:46:11.003Z,101685.24
2018-09-17T04:48:40.305Z,101695.30
2018-09-17T04:51:09.606Z,101698.16
2018-09-17T04:53:38.904Z,101693.31
2018-09-17T04:56:08.360Z,101708.16
2018-09-17T04:58:37.608Z,101703.53
2018-09-17T05:01:06.882Z,101701.67
2018-09-17T05:03:36.251Z,101705.02
2018-09-17T05:06:05.543Z,101703.82
2018-09-17T05:08:34.797Z,101707.33
2018-09-17T05:11:04.827Z,101708.25
2018-09-17T05:13:34.254Z,101707.69
2018-09-17T05:16:03.648Z,101710.55
2018-09-17T05:18:33.110Z,101708.52
2018-09-17T05:21:02.459Z,101705.55
2018-09-17T05:23:31.748Z,101701.92
2018-09-17T05:26:01.127Z,101710.30
2018-09-17T05:28:30.429Z,101705.72
2018-09-17T05:30:59.831Z,101709.81
2018-09-17T05:33:29.171Z,101711.70
2018-09-17T05:35:59.472Z,101717.46
2018-09-17T05:38:28.734Z,101717.02
2018-09-17T05:40:58.482Z,101713.16
2018-09-17T05:43:27.759Z,101711.54
2018-09-17T05:45:57.164Z,101711.08
2018-09-17T05:48:26.523Z,101716.34
2018-09-17T05:50:55.911Z,101716.86
2018-09-17T05:53:25.194Z,101722.56
2018-09-17T05:55:54.822Z,101725.71
2018-09-17T05:58:24.167Z,101727.92
2018-09-17T06:00:53.477Z,101725.88
2018-09-17T06:03:23.087Z,101724.07
2018-09-17T06:05:52.639Z,101715.47
2018-09-17T06:08:21.971Z,101716.53
2018-09-17T06:10:51.299Z,101722.11
2018-09-17T06:13:20.620Z,101711.75
2018-09-17T06:15:49.955Z,101724.46
2018-09-17T06:18:19.259Z,101716.80
2018-09-17T06:20:48.647Z,101713.08
2018-09-17T06:23:17.968Z,101720.64
2018-09-17T06:25:47.707Z,101720.45
2018-09-17T06:28:17.001Z,101726.84
2018-09-17T06:30:46.284Z,101733.80
2018-09-17T06:33:15.580Z,101732.83
2018-09-17T06:35:44.878Z,101729.24
2018-09-17T06:38:14.174Z,101742.57
2018-09-17T06:40:43.533Z,101735.43
2018-09-17T06:43:12.845Z,101740.69
2018-09-17T06:45:42.117Z,101737.08
2018-09-17T06:48:12.630Z,101744.71
2018-09-17T06:50:41.899Z,101744.38
2018-09-17T06:53:11.300Z,101737.55
2018-09-17T06:55:40.617Z,101736.57
2018-09-17T06:58:09.977Z,101730.63
2018-09-17T07:00:39.278Z,101730.08
2018-09-17T07:03:08.717Z,101730.36
2018-09-17T07:05:38.006Z,101735.27
2018-09-17T07:08:07.325Z,101740.22
2018-09-17T07:10:36.815Z,101732.31
2018-09-17T07:13:06.104Z,101741.70
2018-09-17T07:15:35.467Z,101745.03
2018-09-17T07:18:04.986Z,101744.90
2018-09-17T07:20:34.221Z,101739.80
2018-09-17T07:23:03.702Z,101743.28
2018-09-17T07:25:33.064Z,101755.11
2018-09-17T07:28:02.305Z,101755.20
2018-09-17T07:30:32.019Z,101738.22
2018-09-17T07:33:01.765Z,101740.75
2018-09-17T07:35:31.045Z,101731.14
2018-09-17T07:38:00.414Z,101730.36
2018-09-17T07:40:29.795Z,101725.89
2018-09-17T07:42:59.063Z,101727.00
2018-09-17T07:45:28.757Z,101724.54
2018-09-17T07:47:58.256Z,101722.14
2018-09-17T07:50:27.592Z,101719.23
2018-09-17T07:52:56.936Z,101727.31
2018-09-17T07:55:26.960Z,101723.61
2018-09-17T07:57:56.378Z,101726.17
2018-09-17T08:00:25.783Z,101725.53
2018-09-17T08:02:55.122Z,101720.39
2018-09-17T08:05:25.021Z,101720.39
2018-09-17T08:07:54.439Z,101718.48
2018-09-17T08:10:25.516Z,101716.48
2018-09-17T08:12:54.868Z,101711.78
2018-09-17T08:15:24.511Z,101713.86
2018-09-17T08:17:54.360Z,101718.52
2018-09-17T08:20:24.235Z,101719.94
2018-09-17T08:22:53.681Z,101719.94
2018-09-17T08:25:23.204Z,101726.60
2018-09-17T08:27:52.586Z,101714.84
2018-09-17T08:30:22.162Z,101715.08
2018-09-17T08:32:51.599Z,101714.02
2018-09-17T08:35:21.192Z,101715.13
2018-09-17T08:37:50.616Z,101716.06
2018-09-17T08:40:20.160Z,101723.70
2018-09-17T08:42:49.713Z,101721.08
2018-09-17T08:45:19.153Z,101726.47
2018-09-17T08:47:48.508Z,101714.47
2018-09-17T08:50:17.931Z,101712.71
2018-09-17T08:52:47.373Z,101708.31
2018-09-17T08:55:22.430Z,101702.65
2018-09-17T08:57:56.617Z,101701.97
2018-09-17T09:02:34.220Z,101696.58
2018-09-17T09:05:08.924Z,101702.00
2018-09-17T09:07:43.504Z,101697.07
2018-09-17T09:10:18.859Z,101701.00
2018-09-17T09:12:53.696Z,101697.42
2018-09-17T09:15:28.127Z,101700.95
2018-09-17T09:17:57.590Z,101700.19
2018-09-17T09:20:27.079Z,101694.52
2018-09-17T09:22:56.556Z,101694.39
2018-09-17T09:25:26.500Z,101695.63
2018-09-17T09:27:55.838Z,101695.80
2018-09-17T09:30:25.189Z,101694.95
2018-09-17T09:32:55.022Z,101696.38
2018-09-17T09:35:24.712Z,101700.85
2018-09-17T09:37:54.169Z,101698.08
2018-09-17T09:40:23.587Z,101701.05
2018-09-17T09:42:52.835Z,101696.33
2018-09-17T09:45:22.234Z,101695.13
2018-09-17T09:47:51.584Z,101704.25
2018-09-17T09:50:20.962Z,101694.45
2018-09-17T09:52:50.460Z,101689.94
2018-09-17T09:55:20.155Z,101689.02
2018-09-17T09:57:49.590Z,101688.38
2018-09-17T10:00:24.261Z,101683.54
2018-09-17T10:02:58.819Z,101681.33
2018-09-17T10:05:28.219Z,101672.86
2018-09-17T10:07:57.607Z,101675.80
2018-09-17T10:10:32.324Z,101676.80
2018-09-17T10:13:07.060Z,101675.62
2018-09-17T10:15:42.251Z,101675.89
2018-09-17T10:18:16.723Z,101669.11
2018-09-17T10:20:46.319Z,101670.04
2018-09-17T10:23:15.893Z,101665.17
2018-09-17T10:25:45.142Z,101665.34
2018-09-17T10:28:14.872Z,101662.35
2018-09-17T10:30:44.200Z,101667.67
2018-09-17T10:33:13.621Z,101661.09
2018-09-17T10:35:43.101Z,101659.34
2018-09-17T10:38:12.428Z,101654.62
2018-09-17T10:40:41.738Z,101649.73
2018-09-17T10:43:11.049Z,101652.36
2018-09-17T10:45:40.390Z,101654.83
2018-09-17T10:48:09.878Z,101649.55
2018-09-17T10:50:39.606Z,101654.23
2018-09-17T10:53:09.208Z,101644.00
2018-09-17T10:55:38.514Z,101650.53
2018-09-17T10:58:07.879Z,101646.55
2018-09-17T11:00:37.225Z,101640.63
2018-09-17T11:03:06.513Z,101639.03
2018-09-17T11:05:35.847Z,101636.20
2018-09-17T11:08:05.147Z,101633.37
2018-09-17T11:10:34.416Z,101633.99
2018-09-17T11:13:04.020Z,101627.67
2018-09-17T11:15:39.021Z,101630.75
2018-09-17T11:18:08.439Z,101631.59
2018-09-17T11:20:37.753Z,101631.38
2018-09-17T11:23:07.142Z,101625.56
2018-09-17T11:25:36.510Z,101622.81
2018-09-17T11:28:05.910Z,101622.38
2018-09-17T11:30:35.304Z,101621.33
2018-09-17T11:33:04.875Z,101623.04
2018-09-17T11:35:34.155Z,101620.35
2018-09-17T11:38:10.786Z,101614.69
2018-09-17T11:40:40.057Z,101608.05
2018-09-17T11:43:09.404Z,101608.48
2018-09-17T11:45:38.737Z,101607.01
2018-09-17T11:48:08.261Z,101608.17
2018-09-17T11:50:37.527Z,101604.28
2018-09-17T11:53:07.350Z,101607.42
2018-09-17T11:55:36.700Z,101600.81
2018-09-17T11:58:06.041Z,101602.19
2018-09-17T12:00:40.611Z,101606.54
2018-09-17T12:03:15.192Z,101602.14
2018-09-17T12:05:50.030Z,101590.78
2018-09-17T12:08:20.059Z,101589.48
2018-09-17T12:10:49.390Z,101593.93
2018-09-17T12:13:19.108Z,101581.23
2018-09-17T12:15:48.432Z,101576.25
2018-09-17T12:18:17.750Z,101572.21
2018-09-17T12:20:47.054Z,101561.25
2018-09-17T12:23:16.391Z,101560.58
2018-09-17T12:25:45.650Z,101566.56
2018-09-17T12:28:15.232Z,101563.98
2018-09-17T12:30:44.572Z,101552.20
2018-09-17T12:33:13.933Z,101556.38
2018-09-17T12:35:43.542Z,101552.77
2018-09-17T12:38:12.871Z,101546.16
2018-09-17T12:40:42.174Z,101546.66
2018-09-17T12:43:11.533Z,101549.77
2018-09-17T12:45:40.994Z,101541.38
2018-09-17T12:48:10.436Z,101545.94
2018-09-17T12:50:39.783Z,101541.30
2018-09-17T12:53:09.202Z,101544.91
2018-09-17T12:55:38.925Z,101550.11
2018-09-17T12:58:08.339Z,101551.44
2018-09-17T13:00:37.661Z,101542.20
2018-09-17T13:03:07.415Z,101537.55
2018-09-17T13:05:36.757Z,101539.95
2018-09-17T13:08:06.277Z,101541.32
2018-09-17T13:10:36.265Z,101538.95
2018-09-17T13:13:05.629Z,101535.99
2018-09-17T13:15:39.272Z,101541.42
2018-09-17T13:18:09.383Z,101535.54
2018-09-17T13:20:38.893Z,101531.30
2018-09-17T13:23:08.204Z,101526.30
2018-09-17T13:25:37.582Z,101530.38
2018-09-17T13:28:07.217Z,101527.80
2018-09-17T13:30:36.501Z,101531.73
2018-09-17T13:33:05.953Z,101531.64
2018-09-17T13:35:35.301Z,101527.84
2018-09-17T13:38:04.661Z,101524.72
2018-09-17T13:40:34.058Z,101524.98
2018-09-17T13:43:03.367Z,101524.66
2018-09-17T13:45:32.954Z,101520.77
2018-09-17T13:48:02.289Z,101519.18
2018-09-17T13:50:31.630Z,101518.39
2018-09-17T13:53:00.928Z,101508.03
2018-09-17T13:55:30.284Z,101510.86
2018-09-17T13:57:59.605Z,101510.86
2018-09-17T14:00:29.067Z,101514.05
2018-09-17T14:02:58.521Z,101509.03
2018-09-17T14:05:27.865Z,101511.44
2018-09-17T14:07:57.103Z,101517.92
2018-09-17T14:10:26.432Z,101514.56
2018-09-17T14:12:55.729Z,101508.73
2018-09-17T14:15:25.894Z,101510.78
2018-09-17T14:17:55.244Z,101515.37
2018-09-17T14:20:25.345Z,101506.67
2018-09-17T14:22:54.651Z,101502.81
2018-09-17T14:25:24.346Z,101502.29
2018-09-17T14:27:53.623Z,101504.05
2018-09-17T14:30:23.050Z,101503.93
2018-09-17T14:32:57.669Z,101502.05
2018-09-17T14:35:27.367Z,101500.77
2018-09-17T14:37:56.723Z,101497.87
2018-09-17T14:40:26.385Z,101494.46
2018-09-17T14:42:55.650Z,101500.86
2018-09-17T14:45:25.126Z,101492.22
2018-09-17T14:47:54.456Z,101492.08
2018-09-17T14:50:23.878Z,101492.09
2018-09-17T14:52:53.354Z,101485.93
2018-09-17T14:55:22.820Z,101486.72
2018-09-17T14:57:52.069Z,101485.83
2018-09-17T15:00:21.447Z,101485.85
2018-09-17T15:02:50.925Z,101476.27
2018-09-17T15:05:20.272Z,101476.23
2018-09-17T15:07:49.802Z,101474.13
2018-09-17T15:10:19.234Z,101470.66
2018-09-17T15:12:48.435Z,101470.89
2018-09-17T15:15:17.823Z,101469.73
2018-09-17T15:17:47.118Z,101465.16
2018-09-17T15:20:16.722Z,101465.50
2018-09-17T15:22:45.998Z,101465.62
2018-09-17T15:25:15.602Z,101460.52
2018-09-17T15:27:44.944Z,101451.84
2018-09-17T15:30:14.284Z,101457.78
2018-09-17T15:32:43.795Z,101458.59
2018-09-17T15:35:13.063Z,101459.17
2018-09-17T15:37:42.944Z,101454.97
2018-09-17T15:40:12.403Z,101452.75
2018-09-17T15:42:41.642Z,101450.97
2018-09-17T15:45:11.245Z,101452.23
2018-09-17T15:47:40.857Z,101439.63
2018-09-17T15:50:10.335Z,101443.16
2018-09-17T15:52:39.627Z,101443.16
2018-09-17T15:55:08.951Z,101438.13
2018-09-17T15:57:38.283Z,101437.28
2018-09-17T16:00:08.251Z,101437.28
2018-09-17T16:02:37.606Z,101441.48
2018-09-17T16:05:07.484Z,101435.34
2018-09-17T16:07:37.218Z,101431.42
2018-09-17T16:10:07.640Z,101428.34
2018-09-17T16:12:37.234Z,101429.14
2018-09-17T16:15:06.590Z,101429.41
2018-09-17T16:17:35.910Z,101426.87
2018-09-17T16:20:05.393Z,101416.77
2018-09-17T16:22:34.685Z,101428.07
2018-09-17T16:25:04.067Z,101422.15
2018-09-17T16:27:33.653Z,101420.72
2018-09-17T16:30:02.955Z,101423.44
2018-09-17T16:32:32.675Z,101422.41
2018-09-17T16:35:01.950Z,101423.00
2018-09-17T16:37:31.382Z,101421.82
2018-09-17T16:40:00.741Z,101421.57
2018-09-17T16:42:30.052Z,101423.84
2018-09-17T16:44:59.384Z,101429.65
2018-09-17T16:47:28.760Z,101426.29
2018-09-17T16:49:58.058Z,101427.34
2018-09-17T16:52:27.371Z,101425.43
2018-09-17T16:54:57.190Z,101432.70
2018-09-17T16:57:26.504Z,101430.52
2018-09-17T16:59:56.151Z,101431.41
2018-09-17T17:02:25.637Z,101431.57
2018-09-17T17:04:55.154Z,101436.23
2018-09-17T17:07:24.528Z,101439.88
2018-09-17T17:09:53.978Z,101443.20
2018-09-17T17:12:23.307Z,101440.65
2018-09-17T17:14:52.768Z,101446.51
2018-09-17T17:17:22.636Z,101442.33
2018-09-17T17:19:52.034Z,101445.02
2018-09-17T17:22:21.485Z,101445.43
2018-09-17T17:24:50.763Z,101440.87
2018-09-17T17:27:20.134Z,101445.77
2018-09-17T17:29:49.526Z,101441.31
2018-09-17T17:32:18.974Z,101450.13
2018-09-17T17:34:48.430Z,101443.78
2018-09-17T17:37:17.749Z,101444.28
2018-09-17T17:39:47.671Z,101446.98
2018-09-17T17:42:16.791Z,101447.64
2018-09-17T17:44:46.123Z,101444.98
2018-09-17T17:47:15.598Z,101438.79
2018-09-17T17:49:44.899Z,101447.69
2018-09-17T17:52:14.204Z,101446.19
2018-09-17T17:54:43.582Z,101440.77
2018-09-17T17:57:12.879Z,101445.89
2018-09-17T17:59:42.264Z,101449.23
2018-09-17T18:02:12.444Z,101453.82
2018-09-17T18:04:41.768Z,101455.75
2018-09-17T18:07:11.098Z,101456.35
2018-09-17T18:09:40.420Z,101460.87
2018-09-17T18:12:09.786Z,101458.28
2018-09-17T18:14:39.198Z,101455.40
2018-09-17T18:17:08.554Z,101465.48
2018-09-17T18:19:37.979Z,101462.58
2018-09-17T18:22:07.479Z,101470.51
2018-09-17T18:24:37.111Z,101477.08
2018-09-17T18:27:06.475Z,101472.38
2018-09-17T18:29:35.808Z,101477.14
2018-09-17T18:32:05.219Z,101470.33
2018-09-17T18:34:34.535Z,101476.72
2018-09-17T18:37:04.095Z,101477.65
2018-09-17T18:39:33.597Z,101467.59
2018-09-17T18:42:02.871Z,101470.27
2018-09-17T18:44:32.207Z,101461.83
2018-09-17T18:47:02.064Z,101470.11
2018-09-17T18:49:31.443Z,101467.45
2018-09-17T18:52:00.780Z,101462.52
2018-09-17T18:54:30.562Z,101457.97
2018-09-17T18:57:00.153Z,101457.92
2018-09-17T18:59:29.564Z,101454.70
2018-09-17T19:01:59.011Z,101461.02
2018-09-17T19:04:28.464Z,101458.19
2018-09-17T19:06:57.850Z,101457.30
2018-09-17T19:09:32.651Z,101457.75
2018-09-17T19:12:02.099Z,101450.05
2018-09-17T19:14:36.709Z,101451.81
2018-09-17T19:17:20.009Z,101444.47
2018-09-17T19:19:49.480Z,101445.18
2018-09-17T19:22:24.121Z,101451.54
2018-09-17T19:24:53.519Z,101450.73
2018-09-17T19:27:26.943Z,101455.40
2018-09-17T19:29:56.437Z,101451.01
2018-09-17T19:32:26.061Z,101453.11
2018-09-17T19:34:55.420Z,101452.10
2018-09-17T19:37:29.912Z,101453.98
2018-09-17T19:40:04.467Z,101448.19
2018-09-17T19:42:34.570Z,101447.77
2018-09-17T19:45:08.973Z,101445.91
2018-09-17T19:47:38.519Z,101448.20
2018-09-17T19:50:13.299Z,101448.22
2018-09-17T19:52:42.728Z,101448.96
2018-09-17T19:55:13.349Z,101447.04
2018-09-17T20:52:13.568Z,101436.20
2018-09-17T21:14:06.275Z,101432.66
2018-09-17T21:16:36.090Z,101431.02
2018-09-17T21:19:05.489Z,101430.77
2018-09-17T21:21:34.892Z,101420.94
2018-09-17T21:24:04.685Z,101418.98
2018-09-17T21:26:34.091Z,101427.53
2018-09-17T21:29:03.441Z,101421.80
2018-09-17T21:31:33.058Z,101423.17
2018-09-17T21:34:02.547Z,101425.91
2018-09-17T21:36:32.035Z,101418.27
2018-09-17T21:39:01.581Z,101418.06
2018-09-17T21:41:30.901Z,101417.61
2018-09-17T21:44:00.233Z,101415.46
2018-09-17T21:46:29.932Z,101417.28
2018-09-17T21:48:59.353Z,101409.97
2018-09-17T21:51:28.715Z,101405.02
2018-09-17T21:53:58.066Z,101398.56
2018-09-17T21:56:27.617Z,101405.40
2018-09-17T21:58:57.419Z,101400.70
2018-09-17T22:01:26.804Z,101393.78
2018-09-17T22:03:56.186Z,101390.06
2018-09-17T22:06:25.700Z,101402.06
2018-09-17T22:08:55.047Z,101388.64
2018-09-17T22:11:24.323Z,101396.28
2018-09-17T22:13:53.741Z,101394.64
2018-09-17T22:16:23.557Z,101392.03
2018-09-17T22:18:52.880Z,101388.70
2018-09-17T22:21:22.275Z,101392.88
2018-09-17T22:23:51.595Z,101391.84
2018-09-17T22:26:20.919Z,101388.70
2018-09-17T22:28:50.268Z,101385.12
2018-09-17T22:31:20.377Z,101388.05
2018-09-17T22:33:49.675Z,101388.90
2018-09-17T22:36:19.259Z,101384.27
2018-09-17T22:38:48.541Z,101385.87
2018-09-17T22:41:17.917Z,101380.70
2018-09-17T22:43:47.564Z,101383.16
2018-09-17T22:46:16.822Z,101380.42
2018-09-17T22:48:46.098Z,101379.11
2018-09-17T22:51:15.919Z,101371.94
2018-09-17T22:53:45.234Z,101366.47
2018-09-17T22:56:14.534Z,101370.52
2018-09-17T22:58:43.821Z,101375.74
2018-09-17T23:01:13.103Z,101373.91
2018-09-17T23:03:42.437Z,101368.87
2018-09-17T23:06:12.267Z,101374.89
2018-09-17T23:08:41.559Z,101370.14
2018-09-17T23:11:10.858Z,101369.11
2018-09-17T23:13:40.222Z,101367.02
2018-09-17T23:16:09.543Z,101369.91
2018-09-17T23:18:38.771Z,101365.53
2018-09-17T23:21:08.418Z,101357.95
2018-09-17T23:23:37.757Z,101364.89
2018-09-17T23:26:07.159Z,101359.37
2018-09-17T23:28:36.556Z,101359.66
2018-09-17T23:31:05.930Z,101359.37
2018-09-17T23:33:35.208Z,101355.88
2018-09-17T23:36:04.817Z,101351.55
2018-09-17T23:38:34.065Z,101354.23
2018-09-17T23:41:03.372Z,101349.38
2018-09-17T23:43:32.878Z,101348.53
2018-09-17T23:46:02.139Z,101344.95
2018-09-17T23:48:35.007Z,101348.39
2018-09-17T23:51:04.297Z,101348.63
2018-09-17T23:53:33.899Z,101344.85
2018-09-17T23:56:03.229Z,101344.14
2018-09-17T23:58:32.527Z,101338.58
